Time;durP1;ratioP1;P1;durP2;ratioP2;P2;SDS_P1;SDS_P2;PMS_P1;PMS_P2;Temp;Humidity;BMP_temperature;BMP_pressure;BME280_temperature;BME280_humidity;BME280_pressure;Samples;Min_cycle;Max_cycle;Signal;HPM_P1;HPM_P2
2020/12/14 00:03:38;;;;;;;73.50;33.73;;;;;;;1.52;82.01;98685.41;3754116;79;20933;-77
2020/12/14 00:08:41;;;;;;;77.90;37.70;;;;;;;1.57;81.97;98689.20;3753992;79;20988;-77
2020/12/14 00:13:46;;;;;;;68.87;31.77;;;;;;;1.67;82.54;98688.12;3793051;76;21008;-77
2020/12/14 00:18:48;;;;;;;79.97;36.17;;;;;;;1.71;82.21;98693.22;3837470;77;21043;-77
2020/12/14 00:23:51;;;;;;;85.40;35.87;;;;;;;1.79;82.59;98688.91;3828339;77;20985;-77
2020/12/14 00:28:54;;;;;;;82.30;35.53;;;;;;;1.91;82.53;98685.44;3758795;78;21060;-77
2020/12/14 00:33:57;;;;;;;89.27;39.43;;;;;;;1.96;82.05;98696.91;3753991;79;21005;-77
2020/12/14 00:38:59;;;;;;;85.70;38.90;;;;;;;1.88;81.81;98695.41;3754014;79;21047;-77
2020/12/14 00:44:01;;;;;;;67.60;31.40;;;;;;;1.90;82.18;98705.75;3753965;79;21008;-77
2020/12/14 00:49:03;;;;;;;71.83;31.13;;;;;;;1.97;82.26;98709.09;3753835;79;20960;-77
2020/12/14 00:54:06;;;;;;;72.83;34.00;;;;;;;2.00;82.19;98709.11;3754096;79;21012;-77
2020/12/14 00:59:08;;;;;;;69.57;33.97;;;;;;;2.04;82.21;98710.25;3753959;79;20965;-77
2020/12/14 01:04:10;;;;;;;71.90;34.53;;;;;;;2.08;82.08;98714.03;3754146;79;20993;-77
2020/12/14 01:09:12;;;;;;;68.33;32.83;;;;;;;2.18;82.43;98710.79;3754534;79;21025;-77
2020/12/14 01:14:15;;;;;;;56.47;28.50;;;;;;;2.29;82.38;98734.27;3802015;77;21000;-77
2020/12/14 01:19:17;;;;;;;66.40;32.17;;;;;;;2.22;82.03;98725.97;3841029;77;21027;-77
2020/12/14 01:24:19;;;;;;;62.90;30.77;;;;;;;2.25;81.53;98752.95;3751203;78;21456;-77
2020/12/14 01:29:22;;;;;;;85.43;38.23;;;;;;;2.07;81.37;98737.55;3697454;79;20938;-78
2020/12/14 01:34:24;;;;;;;83.23;39.60;;;;;;;2.08;81.86;98736.50;3696557;80;21048;-77
2020/12/14 01:39:26;;;;;;;82.40;37.07;;;;;;;2.09;81.71;98736.79;3696461;80;21460;-77
2020/12/14 01:44:27;;;;;;;64.07;32.23;;;;;;;2.09;81.71;98736.79;3696527;80;21036;-77
2020/12/14 01:49:30;;;;;;;77.97;35.20;;;;;;;2.08;81.95;98708.75;3696473;80;21012;-77
2020/12/14 01:54:36;;;;;;;74.70;33.87;;;;;;;2.08;81.95;98708.75;3668117;80;21024;-77
2020/12/14 01:59:39;;;;;;;58.40;28.57;;;;;;;2.20;81.85;98735.16;3696482;80;20996;-77
2020/12/14 02:04:41;;;;;;;62.23;31.17;;;;;;;2.25;81.76;98725.98;3696509;80;21032;-77
2020/12/14 02:09:43;;;;;;;75.03;34.43;;;;;;;2.23;81.71;98729.41;3696430;80;21444;-77
2020/12/14 02:14:45;;;;;;;76.03;36.23;;;;;;;2.12;81.85;98733.67;3743604;78;21348;-77
2020/12/14 02:19:48;;;;;;;70.40;34.03;;;;;;;2.03;81.53;98729.28;3766638;78;20991;-77
2020/12/14 02:25:00;;;;;;;81.73;37.33;;;;;;;2.03;81.53;98729.28;3722962;78;21040;-78
2020/12/14 02:30:05;;;;;;;67.73;34.50;;;;;;;1.97;81.65;98730.72;3696984;79;20980;-77
2020/12/14 02:35:07;;;;;;;81.03;35.33;;;;;;;2.00;82.03;98727.61;3696444;80;21028;-77
2020/12/14 02:40:09;;;;;;;59.97;29.47;;;;;;;2.07;82.25;98727.48;3696357;80;20992;-77
2020/12/14 02:45:13;;;;;;;64.23;30.40;;;;;;;2.10;81.83;98717.27;3696704;80;20937;-77
2020/12/14 02:50:14;;;;;;;53.40;26.20;;;;;;;2.26;82.17;98733.42;3696468;80;21036;-77
2020/12/14 02:55:16;;;;;;;58.77;27.67;;;;;;;2.23;82.20;98722.80;3696513;80;21028;-77
2020/12/14 03:00:19;;;;;;;58.27;25.77;;;;;;;2.23;82.20;98722.80;3696334;80;20980;-77
2020/12/14 03:05:22;;;;;;;59.77;28.37;;;;;;;2.33;81.75;98734.08;3696530;80;21079;-76
2020/12/14 03:10:24;;;;;;;58.27;27.37;;;;;;;2.30;81.46;98735.87;3696409;80;21488;-76
2020/12/14 03:15:27;;;;;;;58.67;28.07;;;;;;;2.33;81.63;98739.38;3696273;80;21626;-77
2020/12/14 03:20:29;;;;;;;62.57;29.87;;;;;;;2.30;81.38;98743.28;3761818;78;21040;-76
2020/12/14 03:25:31;;;;;;;60.77;27.57;;;;;;;2.22;81.35;98743.65;3805062;77;20968;-76
2020/12/14 03:30:34;;;;;;;64.87;30.50;;;;;;;2.22;81.35;98743.65;3768347;78;21046;-76
2020/12/14 03:35:36;;;;;;;67.17;30.53;;;;;;;2.23;81.45;98747.91;3768365;78;21015;-76
2020/12/14 03:40:38;;;;;;;52.17;26.37;;;;;;;2.31;81.54;98758.61;3768225;78;21506;-75
2020/12/14 03:45:40;;;;;;;46.50;24.47;;;;;;;2.32;81.59;98753.62;3687565;80;21000;-75
2020/12/14 03:50:44;;;;;;;51.07;25.27;;;;;;;2.32;81.59;98753.62;3768603;78;21411;-75
2020/12/14 03:55:50;;;;;;;50.60;25.17;;;;;;;2.28;81.32;98764.38;3768158;78;20999;-75
2020/12/14 04:00:51;;;;;;;47.97;25.30;;;;;;;2.31;81.26;98750.19;3768152;78;21019;-75
2020/12/14 04:05:53;;;;;;;49.10;24.00;;;;;;;2.29;81.27;98765.45;3687655;80;20996;-75
2020/12/14 04:10:55;;;;;;;39.33;22.37;;;;;;;2.29;81.27;98765.45;3768196;78;21019;-75
2020/12/14 04:15:58;;;;;;;54.97;27.40;;;;;;;2.27;81.30;98772.02;3831710;77;21451;-76
2020/12/14 04:21:00;;;;;;;48.50;26.17;;;;;;;2.25;81.33;98765.64;3837469;77;20980;-76
2020/12/14 04:26:03;;;;;;;54.10;27.67;;;;;;;2.28;81.65;98764.38;3796272;77;20981;-76
2020/12/14 04:31:05;;;;;;;42.93;22.50;;;;;;;2.29;81.40;98762.81;3754059;79;21000;-76
2020/12/14 04:36:08;;;;;;;46.90;24.57;;;;;;;2.28;81.31;98777.59;3753988;79;21464;-76
2020/12/14 04:41:12;;;;;;;46.00;25.13;;;;;;;2.15;81.20;98783.41;3754236;79;21507;-76
2020/12/14 04:46:14;;;;;;;43.03;23.17;;;;;;;2.15;81.20;98783.41;3754587;79;21452;-75
2020/12/14 04:51:16;;;;;;;46.93;24.03;;;;;;;2.12;81.24;98811.64;3722869;79;21000;-76
2020/12/14 04:56:18;;;;;;;40.23;21.40;;;;;;;2.12;81.24;98811.64;3754348;79;21020;-76
2020/12/14 05:01:22;;;;;;;41.17;22.80;;;;;;;2.03;80.91;98831.02;3723185;79;21016;-75
2020/12/14 05:06:25;;;;;;;54.27;27.40;;;;;;;1.96;80.77;98846.19;3753986;79;21028;-74
2020/12/14 05:11:34;;;;;;;52.27;25.90;;;;;;;1.96;80.77;98846.19;3755505;77;21032;-74
2020/12/14 05:16:36;;;;;;;57.90;27.97;;;;;;;1.84;81.05;98850.66;3837968;77;20980;-75
2020/12/14 05:21:54;;;;;;;83.77;36.10;;;;;;;1.84;81.05;98850.66;3837756;77;21028;-75
2020/12/14 05:26:59;;;;;;;76.27;34.57;;;;;;;1.80;81.17;98867.47;3811059;77;21012;-76
2020/12/14 05:32:07;;;;;;;88.53;41.07;;;;;;;1.76;81.23;98862.35;3837870;77;20980;-75
2020/12/14 05:37:13;;;;;;;60.07;31.03;;;;;;;1.82;81.63;98854.85;3837924;77;21055;-76
2020/12/14 05:42:20;;;;;;;74.57;34.87;;;;;;;1.88;81.64;98855.24;3837758;77;20952;-76
2020/12/14 05:47:31;;;;;;;78.03;36.77;;;;;;;1.88;81.50;98867.13;3837829;77;20972;-76
2020/12/14 05:52:39;;;;;;;72.93;36.60;;;;;;;1.91;81.60;98858.48;3754327;78;20997;-75
2020/12/14 05:57:46;;;;;;;72.80;35.67;;;;;;;1.94;81.50;98857.48;3837700;77;21012;-74
2020/12/14 06:02:51;;;;;;;70.90;34.90;;;;;;;1.98;81.75;98867.09;3837731;77;21424;-74
2020/12/14 06:07:58;;;;;;;82.23;38.87;;;;;;;2.01;81.83;98859.48;3837896;77;21285;-74
2020/12/14 06:13:06;;;;;;;74.07;36.50;;;;;;;2.03;81.77;98860.61;3837664;77;21016;-75
2020/12/14 06:18:13;;;;;;;72.10;36.57;;;;;;;2.04;81.67;98866.98;3837813;77;20968;-75
2020/12/14 06:23:17;;;;;;;64.13;34.70;;;;;;;2.09;81.69;98876.85;3836354;77;20917;-75
2020/12/14 06:28:34;;;;;;;76.17;37.40;;;;;;;2.15;81.59;98885.70;3760419;78;21456;-75
2020/12/14 06:33:40;;;;;;;69.27;35.63;;;;;;;2.14;81.55;98881.44;3754252;79;21448;-75
2020/12/14 06:38:43;;;;;;;70.33;34.33;;;;;;;2.17;81.65;98896.33;3754067;79;21040;-76
2020/12/14 06:43:48;;;;;;;67.87;33.23;;;;;;;2.17;81.31;98896.33;3777159;77;21005;-76
2020/12/14 06:48:53;;;;;;;62.87;33.03;;;;;;;2.22;81.54;98893.81;3751915;79;21020;-76
2020/12/14 06:53:55;;;;;;;65.67;32.63;;;;;;;2.31;81.51;98894.27;3811726;77;20980;-76
2020/12/14 06:58:58;;;;;;;53.13;26.70;;;;;;;2.31;81.51;98894.27;3796848;76;20985;-77
2020/12/14 07:04:23;;;;;;;68.07;32.03;;;;;;;2.31;81.30;98899.55;3812088;76;21594;-77
2020/12/14 07:09:32;;;;;;;55.67;30.13;;;;;;;2.41;81.47;98905.58;3813616;77;20968;-75
2020/12/14 07:14:48;;;;;;;55.55;27.37;;;;;;;2.41;81.47;98905.58;3807464;76;21030;-75
2020/12/14 07:19:53;;;;;;;54.37;27.97;;;;;;;2.50;81.09;98923.20;3804111;76;20989;-75
2020/12/14 07:25:02;;;;;;;52.77;26.60;;;;;;;2.50;81.09;98923.20;3791174;77;21032;-75
2020/12/14 07:30:11;;;;;;;43.63;22.37;;;;;;;2.56;81.15;98924.91;3833626;76;21015;-75
2020/12/14 07:35:14;;;;;;;58.30;28.87;;;;;;;2.56;81.15;98911.69;3810575;76;21050;-75
2020/12/14 07:40:16;;;;;;;58.70;30.27;;;;;;;2.55;80.75;98898.20;3816795;76;21015;-75
2020/12/14 07:45:21;;;;;;;54.90;28.47;;;;;;;2.72;81.24;98925.53;3798748;77;21048;-75
2020/12/14 07:50:26;;;;;;;52.37;28.20;;;;;;;2.80;81.03;98933.64;3807326;76;21019;-75
2020/12/14 07:55:29;;;;;;;58.80;30.10;;;;;;;2.83;80.90;98935.81;3725808;78;21040;-76
2020/12/14 08:00:30;;;;;;;50.37;26.47;;;;;;;2.97;81.05;98948.80;3723611;78;21059;-75
2020/12/14 08:05:33;;;;;;;52.27;28.33;;;;;;;3.11;80.53;98942.72;3730932;78;21059;-75
2020/12/14 08:10:38;;;;;;;49.37;27.30;;;;;;;3.22;80.55;98939.22;3739941;78;21022;-75
2020/12/14 08:15:40;;;;;;;46.40;26.63;;;;;;;3.34;80.58;98937.84;3732157;78;21021;-75
2020/12/14 08:20:43;;;;;;;35.57;20.53;;;;;;;3.46;80.59;98935.95;3722138;78;21116;-76
2020/12/14 08:25:47;;;;;;;43.67;23.03;;;;;;;3.56;80.28;98928.18;3718420;79;21555;-75
2020/12/14 08:30:49;;;;;;;47.77;24.07;;;;;;;3.65;79.95;98943.19;3724490;79;21004;-75
2020/12/14 08:35:54;;;;;;;40.73;23.17;;;;;;;3.81;79.98;98941.59;3825699;76;21007;-74
2020/12/14 08:41:03;;;;;;;39.67;21.50;;;;;;;3.99;79.86;98946.36;3809613;76;21416;-75
2020/12/14 08:46:15;;;;;;;28.90;15.03;;;;;;;4.13;79.69;98948.17;3800966;76;21546;-75
2020/12/14 08:51:27;;;;;;;23.40;14.43;;;;;;;4.28;79.63;98953.71;3800002;77;21454;-73
2020/12/14 08:56:33;;;;;;;21.40;12.60;;;;;;;4.42;78.82;98960.31;3806560;76;21051;-76
2020/12/14 09:01:35;;;;;;;24.17;14.37;;;;;;;4.53;78.44;98963.89;3793230;77;21036;-76
2020/12/14 09:06:40;;;;;;;29.13;15.40;;;;;;;4.63;78.31;98958.75;3789479;76;21012;-76
2020/12/14 09:11:48;;;;;;;33.70;19.37;;;;;;;4.69;78.21;98940.25;3811737;76;20980;-76
2020/12/14 09:16:55;;;;;;;26.90;16.63;;;;;;;4.74;78.24;98943.77;3811069;76;21055;-76
2020/12/14 09:21:58;;;;;;;28.20;17.27;;;;;;;4.79;78.16;98939.83;3807735;76;21024;-76
2020/12/14 09:27:07;;;;;;;42.53;21.97;;;;;;;4.90;78.03;98933.34;3812664;76;21428;-76
2020/12/14 09:32:11;;;;;;;41.27;20.27;;;;;;;4.97;77.91;98933.42;3809922;76;22107;-77
2020/12/14 09:37:13;;;;;;;36.47;21.57;;;;;;;5.07;77.30;98925.31;3795286;76;20968;-76
2020/12/14 09:42:15;;;;;;;32.73;18.67;;;;;;;5.23;77.71;98927.09;3673036;80;20957;-76
2020/12/14 09:47:18;;;;;;;33.10;19.40;;;;;;;5.34;77.15;98923.20;3822260;76;21067;-76
2020/12/14 09:52:20;;;;;;;35.60;19.17;;;;;;;5.37;77.05;98926.14;3821747;76;21016;-75
2020/12/14 09:57:22;;;;;;;38.90;21.13;;;;;;;5.37;76.64;98927.47;3795735;77;21020;-74
2020/12/14 10:02:24;;;;;;;39.43;22.50;;;;;;;5.33;76.10;98920.27;3796633;77;21003;-75
2020/12/14 10:07:28;;;;;;;28.10;15.43;;;;;;;5.30;76.04;98912.27;3802844;76;22321;-75
2020/12/14 10:12:30;;;;;;;39.03;23.00;;;;;;;5.36;75.87;98912.61;3678887;78;21040;-75
2020/12/14 10:17:32;;;;;;;40.40;21.53;;;;;;;5.30;75.78;98905.63;3783442;77;20984;-75
2020/12/14 10:22:36;;;;;;;38.70;22.63;;;;;;;5.36;75.85;98899.83;3787658;76;21024;-76
2020/12/14 10:27:38;;;;;;;35.33;20.03;;;;;;;5.47;76.25;98904.19;3800961;76;21005;-77
2020/12/14 10:32:40;;;;;;;34.03;18.93;;;;;;;5.54;75.90;98903.48;3771710;77;72043;-76
2020/12/14 10:37:44;;;;;;;38.67;21.27;;;;;;;5.59;75.44;98908.83;3602651;80;21461;-76
2020/12/14 10:42:47;;;;;;;37.33;20.30;;;;;;;5.65;75.67;98893.22;3617808;80;21040;-77
2020/12/14 10:47:49;;;;;;;37.70;19.43;;;;;;;5.72;75.41;98888.20;3575398;80;22897;-77
2020/12/14 10:52:51;;;;;;;30.83;16.97;;;;;;;5.79;75.41;98882.14;3324890;87;21106;-76
2020/12/14 10:57:53;;;;;;;33.73;16.63;;;;;;;5.89;75.08;98894.20;3356466;87;21011;-76
2020/12/14 11:02:59;;;;;;;34.37;20.00;;;;;;;5.86;74.32;98894.69;3417564;85;22198;-77
2020/12/14 11:07:59;;;;;;;38.67;20.60;;;;;;;5.88;74.54;98899.24;3412827;85;21627;-76
2020/12/14 11:13:01;;;;;;;28.90;17.70;;;;;;;5.96;74.75;98900.11;3441269;81;53317;-77
2020/12/14 11:18:03;;;;;;;32.27;17.87;;;;;;;6.09;74.62;98903.42;3537394;80;77944;-78
2020/12/14 11:23:05;;;;;;;31.43;18.10;;;;;;;6.21;74.65;98910.69;3666058;80;21030;-77
2020/12/14 11:36:29;;;;;;;29.30;17.67;;;;;;;6.38;73.38;98887.09;259209;1100;276250;-77
2020/12/14 11:43:09;;;;;;;27.70;16.15;;;;;;;6.40;73.74;98884.98;262092;1104;51665;-77
2020/12/14 11:48:18;;;;;;;30.23;18.13;;;;;;;6.30;73.48;98888.39;261646;1104;145021;-77
2020/12/14 11:53:20;;;;;;;28.40;14.93;;;;;;;6.25;72.97;98880.37;261773;1104;23787;-77
2020/12/14 11:58:22;;;;;;;29.93;16.70;;;;;;;6.15;72.79;98883.77;261502;1104;23483;-78
2020/12/14 12:03:25;;;;;;;27.75;17.20;;;;;;;6.08;73.68;98881.33;261842;1105;23341;-76
2020/12/14 12:08:27;;;;;;;28.27;15.83;;;;;;;6.04;73.26;98880.23;261832;1105;23389;-78
2020/12/14 12:13:32;;;;;;;26.57;15.80;;;;;;;6.03;73.18;98889.29;261614;1104;23354;-77
2020/12/14 12:18:35;;;;;;;22.67;14.67;;;;;;;6.05;73.21;98887.16;261716;1104;24929;-78
2020/12/14 12:23:37;;;;;;;22.17;13.60;;;;;;;6.07;73.00;98878.92;261597;1104;23834;-78
2020/12/14 12:28:39;;;;;;;27.50;14.95;;;;;;;5.99;72.95;98861.60;261432;1104;23338;-76
2020/12/14 12:33:42;;;;;;;24.80;14.23;;;;;;;5.90;72.89;98861.22;261231;1104;23806;-76
2020/12/14 12:38:46;;;;;;;26.50;15.57;;;;;;;5.89;73.21;98866.80;261254;1105;23332;-78
2020/12/14 12:43:49;;;;;;;26.43;13.10;;;;;;;5.88;72.77;98868.67;261218;1104;23339;-77
2020/12/14 12:48:52;;;;;;;19.30;11.30;;;;;;;5.81;72.52;98882.17;261233;1104;23395;-78
2020/12/14 12:53:55;;;;;;;18.00;10.77;;;;;;;5.73;72.83;98865.89;261799;1104;23427;-77
2020/12/14 12:58:57;;;;;;;21.15;11.05;;;;;;;5.59;72.64;98876.94;261079;1105;23425;-77
2020/12/14 13:03:59;;;;;;;23.20;12.90;;;;;;;5.50;72.18;98867.84;261401;1104;23376;-78
2020/12/14 13:09:03;;;;;;;22.70;14.23;;;;;;;5.47;72.22;98870.98;261497;1104;27744;-77
2020/12/14 13:14:05;;;;;;;20.50;11.80;;;;;;;5.39;72.69;98885.53;261119;1105;23550;-75
2020/12/14 13:19:08;;;;;;;20.27;11.47;;;;;;;5.31;72.61;98876.14;261299;1105;23496;-77
2020/12/14 13:24:11;;;;;;;30.47;15.70;;;;;;;5.22;72.81;98875.02;262450;1105;23486;-77
2020/12/14 13:29:13;;;;;;;23.63;12.50;;;;;;;5.17;72.57;98877.61;261437;1104;23370;-77
2020/12/14 13:34:16;;;;;;;17.35;10.50;;;;;;;5.10;72.34;98869.05;260677;1104;123327;-76
2020/12/14 13:39:19;;;;;;;17.65;9.60;;;;;;;4.98;72.47;98885.12;261353;1105;23820;-76
2020/12/14 13:44:21;;;;;;;16.13;9.50;;;;;;;4.78;71.91;98888.33;260726;1105;23416;-76
2020/12/14 13:49:24;;;;;;;18.53;9.00;;;;;;;4.53;72.30;98886.95;261272;1104;23395;-76
2020/12/14 13:54:26;;;;;;;18.97;7.47;;;;;;;4.35;72.61;98892.55;261679;1104;23414;-77
2020/12/14 13:59:28;;;;;;;20.30;10.67;;;;;;;4.19;73.07;98897.63;261576;1104;23880;-78
2020/12/14 14:04:30;;;;;;;20.03;9.67;;;;;;;4.04;73.25;98908.84;261421;1104;23401;-78
2020/12/14 14:09:34;;;;;;;20.80;11.17;;;;;;;3.82;73.47;98919.35;261621;1104;23840;-78
2020/12/14 14:14:36;;;;;;;25.70;12.57;;;;;;;3.62;73.35;98921.66;261924;1098;23544;-79
2020/12/14 14:19:38;;;;;;;26.40;13.47;;;;;;;3.50;74.37;98925.17;261764;1105;23495;-78
2020/12/14 14:24:40;;;;;;;27.50;16.20;;;;;;;3.37;74.36;98933.39;261607;1104;26786;-77
2020/12/14 14:29:43;;;;;;;25.73;14.67;;;;;;;3.22;74.70;98928.64;261843;1104;23365;-78
2020/12/14 14:34:50;;;;;;;26.90;15.27;;;;;;;3.09;74.70;98921.75;261713;1104;23430;-78
2020/12/14 14:39:52;;;;;;;49.63;24.50;;;;;;;2.94;75.37;98934.69;262592;1104;28251;-78
2020/12/14 14:44:55;;;;;;;38.87;20.67;;;;;;;2.84;75.08;98935.28;261755;1105;23417;-79
2020/12/14 14:49:57;;;;;;;36.87;20.20;;;;;;;2.71;75.61;98918.66;261619;1105;23355;-78
2020/12/14 14:54:59;;;;;;;46.20;26.03;;;;;;;2.53;75.87;98924.06;261458;1104;23357;-78
2020/12/14 15:00:03;;;;;;;56.80;28.33;;;;;;;2.30;75.28;98930.98;261521;1105;23399;-78
2020/12/14 15:05:06;;;;;;;72.37;32.80;;;;;;;2.09;75.73;98931.55;262633;1105;23362;-79
2020/12/14 15:10:09;;;;;;;76.60;34.93;;;;;;;1.96;75.85;98935.19;262243;1104;23420;-78
2020/12/14 15:15:11;;;;;;;74.83;34.53;;;;;;;1.84;76.72;98929.91;261699;1105;23390;-78
2020/12/14 15:20:14;;;;;;;83.10;41.25;;;;;;;1.72;76.22;98932.51;261204;1104;23700;-78
2020/12/14 15:25:16;;;;;;;86.57;37.00;;;;;;;1.58;77.09;98928.46;260949;1105;23350;-76
2020/12/14 15:30:19;;;;;;;94.90;40.40;;;;;;;1.45;76.99;98914.41;261121;1104;23450;-79
2020/12/14 15:35:22;;;;;;;97.60;44.50;;;;;;;1.38;77.99;98921.63;261216;1104;23433;-78
2020/12/14 15:40:24;;;;;;;92.95;43.05;;;;;;;1.33;77.43;98929.41;260715;1104;23352;-79
2020/12/14 15:45:26;;;;;;;98.70;42.93;;;;;;;1.15;77.45;98928.43;261212;1105;23345;-78
2020/12/14 15:50:30;;;;;;;115.00;50.13;;;;;;;1.07;78.01;98926.09;261310;1104;23362;-78
2020/12/14 15:55:37;;;;;;;105.87;47.50;;;;;;;1.02;78.31;98924.13;261203;1104;23351;-79
2020/12/14 16:00:40;;;;;;;83.87;40.90;;;;;;;1.02;78.29;98918.03;262065;1105;26369;-79
2020/12/14 16:05:45;;;;;;;78.43;35.23;;;;;;;0.92;78.04;98923.03;261573;1104;23350;-79
2020/12/14 16:10:48;;;;;;;92.63;40.63;;;;;;;0.82;77.91;98929.62;261032;1105;23546;-79
2020/12/14 16:15:50;;;;;;;79.27;38.23;;;;;;;0.71;78.54;98922.45;261102;1105;23337;-79
2020/12/14 16:20:58;;;;;;;82.47;38.13;;;;;;;0.61;78.83;98928.23;261247;1104;23373;-79
2020/12/14 16:26:01;;;;;;;60.85;28.80;;;;;;;0.51;79.15;98926.11;261215;1104;23365;-78
2020/12/14 16:31:03;;;;;;;76.33;34.40;;;;;;;0.51;79.17;98928.73;261381;1104;23404;-79
2020/12/14 16:36:05;;;;;;;84.53;39.03;;;;;;;0.52;79.94;98924.30;261587;1104;23372;-79
2020/12/14 16:41:10;;;;;;;94.90;41.75;;;;;;;0.44;79.53;98924.58;261464;1104;23386;-79
2020/12/14 16:46:12;;;;;;;73.70;34.43;;;;;;;0.39;79.34;98929.69;261366;1104;23838;-80
2020/12/14 16:51:15;;;;;;;93.05;43.85;;;;;;;0.33;79.35;98920.82;261399;1104;23422;-79
2020/12/14 16:56:18;;;;;;;98.17;45.40;;;;;;;0.31;79.90;98913.14;261207;1104;23568;-79
2020/12/14 17:01:23;;;;;;;118.93;48.00;;;;;;;0.27;79.83;98914.59;261214;1104;23519;-78
2020/12/14 17:06:27;;;;;;;100.20;45.63;;;;;;;0.21;80.00;98904.94;261128;1105;23400;-79
2020/12/14 17:11:30;;;;;;;109.43;50.17;;;;;;;0.20;80.41;98905.13;261278;1105;23380;-79
2020/12/14 17:16:32;;;;;;;94.87;43.37;;;;;;;0.19;80.31;98903.53;261209;1104;23361;-79
2020/12/14 17:21:34;;;;;;;78.57;40.10;;;;;;;0.13;80.30;98905.21;261421;1104;24004;-78
2020/12/14 17:26:36;;;;;;;81.43;38.03;;;;;;;0.06;79.91;98907.89;261355;1104;23825;-79
2020/12/14 17:31:38;;;;;;;92.47;43.23;;;;;;;0.07;80.73;98901.61;261386;1104;23398;-79
2020/12/14 17:36:41;;;;;;;102.30;47.07;;;;;;;0.04;81.32;98907.29;261534;1104;23357;-79
2020/12/14 17:41:43;;;;;;;97.70;44.13;;;;;;;-0.03;80.59;98906.55;261332;1104;23414;-80
2020/12/14 17:46:49;;;;;;;110.63;51.17;;;;;;;-0.05;81.30;98909.40;261621;1104;26586;-79
2020/12/14 17:51:59;;;;;;;92.10;43.80;;;;;;;-0.05;81.40;98913.88;261812;1102;23420;-80
2020/12/14 17:57:01;;;;;;;92.60;42.65;;;;;;;-0.10;81.95;98905.80;261488;1101;25716;-79
2020/12/14 18:02:03;;;;;;;70.80;33.53;;;;;;;-0.16;80.70;98914.57;261451;1101;23411;-78
2020/12/14 18:07:06;;;;;;;56.80;27.87;;;;;;;-0.16;81.94;98914.57;261615;1101;26413;-78
2020/12/14 18:12:11;;;;;;;91.53;40.73;;;;;;;-0.18;81.81;98915.58;261491;1101;23543;-78
2020/12/14 18:17:14;;;;;;;73.37;35.30;;;;;;;-0.15;82.03;98913.53;261829;1101;23593;-79
2020/12/14 18:22:16;;;;;;;55.10;27.20;;;;;;;-0.13;80.95;98906.23;261829;1101;23468;-80
2020/12/14 18:27:18;;;;;;;68.70;30.50;;;;;;;-0.14;81.91;98915.15;262227;1102;23399;-79
2020/12/14 18:33:29;;;;;;;58.03;28.57;;;;;;;-0.17;81.82;98911.11;262370;1101;23495;-79
2020/12/14 21:25:12;;;;;;;97.80;46.73;;;;;;;-1.08;83.12;98923.59;261608;1102;23347;-79
2020/12/14 21:30:15;;;;;;;112.03;49.23;;;;;;;-1.11;83.33;98922.18;261819;1101;23360;-78
2020/12/14 21:35:17;;;;;;;73.40;33.00;;;;;;;-1.11;83.95;98937.16;261517;1101;23365;-79
2020/12/14 21:40:18;;;;;;;103.10;46.80;;;;;;;-1.07;83.57;98922.58;261813;1101;23436;-78
2020/12/14 21:45:21;;;;;;;127.13;51.67;;;;;;;-1.07;84.19;98925.21;261662;1101;23359;-79
2020/12/14 21:50:23;;;;;;;99.10;43.80;;;;;;;-1.06;83.75;98924.20;261696;1101;23404;-79
2020/12/14 21:55:25;;;;;;;103.53;45.07;;;;;;;-1.06;83.55;98927.63;261717;1101;23330;-79
2020/12/14 22:00:27;;;;;;;91.13;41.07;;;;;;;-1.04;83.98;98922.95;261613;1102;23350;-79
2020/12/14 22:05:32;;;;;;;71.27;34.53;;;;;;;-1.11;82.82;98924.81;261629;1101;23417;-79
2020/12/14 22:10:34;;;;;;;88.30;40.47;;;;;;;-1.18;83.19;98933.75;261640;1102;26848;-78
2020/12/14 22:15:40;;;;;;;89.07;38.43;;;;;;;-1.15;84.54;98933.33;261566;1101;23354;-79
2020/12/14 22:20:42;;;;;;;84.45;38.60;;;;;;;-1.14;84.28;98938.38;261589;1103;23478;-79
2020/12/14 22:25:45;;;;;;;87.47;40.37;;;;;;;-1.10;84.15;98950.09;261511;1101;23831;-79
2020/12/14 22:30:47;;;;;;;87.23;38.20;;;;;;;-1.07;84.22;98951.51;261706;1101;23555;-79
2020/12/14 22:35:49;;;;;;;77.37;35.23;;;;;;;-1.05;83.91;98954.72;261683;1101;23445;-79
2020/12/14 22:40:51;;;;;;;69.43;31.63;;;;;;;-1.01;84.44;98953.29;261646;1104;23365;-79
2020/12/14 22:45:53;;;;;;;68.17;31.80;;;;;;;-0.99;84.06;98953.08;261433;1102;23408;-79
2020/12/14 22:50:57;;;;;;;76.57;36.57;;;;;;;-0.93;84.19;98950.43;261734;1101;23526;-78
2020/12/14 22:55:59;;;;;;;86.27;37.97;;;;;;;-0.90;83.77;98955.27;261644;1102;28840;-78
2020/12/14 23:01:02;;;;;;;79.55;34.20;;;;;;;-0.87;85.06;98949.61;261564;1102;26372;-78
2020/12/14 23:06:05;;;;;;;81.00;36.10;;;;;;;-0.87;84.38;98949.61;261896;1101;23393;-79
2020/12/14 23:11:07;;;;;;;76.07;35.17;;;;;;;-0.85;84.48;98946.77;261820;1101;23482;-78
2020/12/14 23:16:09;;;;;;;68.80;32.80;;;;;;;-0.86;84.40;98939.89;261651;1102;23392;-81
2020/12/14 23:21:12;;;;;;;77.23;35.63;;;;;;;-0.88;84.69;98934.84;261902;1101;23549;-79
2020/12/14 23:26:21;;;;;;;72.70;32.65;;;;;;;-0.87;83.78;98939.09;261587;1101;23354;-79
2020/12/14 23:31:24;;;;;;;69.17;33.42;;;;;;;-0.86;84.44;98939.89;261995;1101;23354;-80
2020/12/14 23:36:26;;;;;;;74.63;35.60;;;;;;;-0.92;84.10;98948.63;262104;1102;23486;-79
2020/12/14 23:41:29;;;;;;;73.80;35.63;;;;;;;-0.94;83.61;98940.13;261612;1101;23393;-80
2020/12/14 23:46:31;;;;;;;91.97;38.03;;;;;;;-0.90;84.33;98933.43;261726;1101;26814;-79
2020/12/14 23:51:34;;;;;;;86.40;38.53;;;;;;;-0.83;85.02;98934.20;261776;1101;23388;-79
2020/12/14 23:56:36;;;;;;;90.53;39.37;;;;;;;-0.75;84.59;98917.38;261550;1101;23365;-79
